createdAt,value
2023-03-15T00:01:27.470Z,5.32
2023-03-15T00:03:55.862Z,5.27
2023-03-15T00:06:24.366Z,5.23
2023-03-15T00:08:52.846Z,5.16
2023-03-15T00:11:21.524Z,5.09
2023-03-15T00:16:37.261Z,4.89
2023-03-15T00:19:10.673Z,4.80
2023-03-15T00:21:40.750Z,4.71
2023-03-15T00:24:10.663Z,4.63
2023-03-15T00:26:39.255Z,4.56
2023-03-15T00:29:10.659Z,4.50
2023-03-15T00:31:39.661Z,4.46
2023-03-15T00:34:08.032Z,4.43
2023-03-15T00:36:36.551Z,4.42
2023-03-15T00:39:05.955Z,4.42
2023-03-15T00:41:34.777Z,4.41
2023-03-15T00:44:06.470Z,4.39
2023-03-15T00:46:34.986Z,4.37
2023-03-15T00:49:03.879Z,4.34
2023-03-15T00:51:34.649Z,4.31
2023-03-15T00:54:03.527Z,4.27
2023-03-15T00:56:32.047Z,4.21
2023-03-15T00:59:00.522Z,4.14
2023-03-15T01:01:29.563Z,4.07
2023-03-15T01:03:58.459Z,4.00
2023-03-15T01:06:27.377Z,3.92
2023-03-15T01:08:56.885Z,3.86
2023-03-15T01:11:26.617Z,3.80
2023-03-15T01:13:55.847Z,3.75
2023-03-15T01:16:27.849Z,3.70
2023-03-15T01:18:56.428Z,3.65
2023-03-15T01:21:24.810Z,3.60
2023-03-15T01:23:53.529Z,3.57
2023-03-15T01:26:23.135Z,3.55
2023-03-15T01:28:51.843Z,3.53
2023-03-15T01:31:22.029Z,3.52
2023-03-15T01:33:50.417Z,3.51
2023-03-15T01:36:18.751Z,3.52
2023-03-15T01:38:47.299Z,3.51
2023-03-15T01:41:16.425Z,3.52
2023-03-15T01:43:48.581Z,3.52
2023-03-15T01:46:18.701Z,3.53
2023-03-15T01:48:49.079Z,3.51
2023-03-15T01:51:34.454Z,3.48
2023-03-15T01:54:04.847Z,3.44
2023-03-15T01:56:36.032Z,3.40
2023-03-15T01:59:05.077Z,3.35
2023-03-15T02:01:33.677Z,3.28
2023-03-15T02:04:07.724Z,3.20
2023-03-15T02:06:37.501Z,3.12
2023-03-15T02:09:07.138Z,3.07
2023-03-15T02:11:37.287Z,3.02
2023-03-15T02:14:05.904Z,2.99
2023-03-15T02:16:35.796Z,2.95
2023-03-15T02:19:07.302Z,2.92
2023-03-15T02:21:48.356Z,2.89
2023-03-15T02:24:22.708Z,2.87
2023-03-15T02:26:53.306Z,2.83
2023-03-15T02:29:22.246Z,2.79
2023-03-15T02:31:51.940Z,2.75
2023-03-15T02:34:20.270Z,2.73
2023-03-15T02:36:49.619Z,2.70
2023-03-15T02:39:21.056Z,2.68
2023-03-15T02:41:58.467Z,2.68
2023-03-15T02:44:38.503Z,2.67
2023-03-15T02:47:17.306Z,2.65
2023-03-15T02:49:46.798Z,2.62
2023-03-15T02:52:14.992Z,2.61
2023-03-15T02:54:43.809Z,2.58
2023-03-15T02:57:13.119Z,2.56
2023-03-15T02:59:43.066Z,2.52
2023-03-15T03:02:13.546Z,2.47
2023-03-15T03:04:44.301Z,2.44
2023-03-15T03:07:12.616Z,2.42
2023-03-15T03:09:48.792Z,2.39
2023-03-15T03:12:18.377Z,2.38
2023-03-15T03:14:46.676Z,2.37
2023-03-15T03:17:18.013Z,2.34
2023-03-15T03:19:46.721Z,2.33
2023-03-15T03:22:17.440Z,2.32
2023-03-15T03:24:46.349Z,2.28
2023-03-15T03:27:15.370Z,2.24
2023-03-15T03:29:45.348Z,2.22
2023-03-15T03:32:13.708Z,2.21
2023-03-15T03:34:42.240Z,2.18
2023-03-15T03:37:11.194Z,2.17
2023-03-15T03:40:08.352Z,2.16
2023-03-15T03:42:37.125Z,2.16
2023-03-15T03:45:06.165Z,2.16
2023-03-15T03:47:38.521Z,2.16
2023-03-15T03:50:07.432Z,2.16
2023-03-15T03:52:37.744Z,2.17
2023-03-15T03:55:09.055Z,2.17
2023-03-15T03:57:37.359Z,2.16
2023-03-15T04:00:07.486Z,2.15
2023-03-15T04:02:43.142Z,2.14
2023-03-15T04:05:14.255Z,2.13
2023-03-15T04:07:43.687Z,2.14
2023-03-15T04:10:15.993Z,2.14
2023-03-15T04:12:50.059Z,2.15
2023-03-15T04:15:18.666Z,2.16
2023-03-15T04:17:47.355Z,2.18
2023-03-15T04:20:17.746Z,2.22
2023-03-15T04:22:49.912Z,2.28
2023-03-15T04:25:32.877Z,2.34
2023-03-15T04:28:33.933Z,2.40
2023-03-15T04:31:15.557Z,2.45
2023-03-15T04:34:06.948Z,2.49
2023-03-15T04:36:56.421Z,2.54
2023-03-15T04:39:42.964Z,2.89
2023-03-15T04:42:29.855Z,3.68
2023-03-15T04:45:32.074Z,4.45
2023-03-15T04:48:21.942Z,5.08
2023-03-15T04:51:10.428Z,5.55
2023-03-15T04:53:54.745Z,5.96
2023-03-15T04:56:38.425Z,6.47
2023-03-15T04:59:22.408Z,6.77
2023-03-15T05:02:23.375Z,7.22
2023-03-15T05:05:13.577Z,7.56
2023-03-15T05:08:01.394Z,7.69
2023-03-15T05:10:38.083Z,7.87
2023-03-15T05:13:23.018Z,8.24
2023-03-15T05:16:14.326Z,8.66
2023-03-15T05:19:03.974Z,8.78
2023-03-15T05:21:34.772Z,8.74
2023-03-15T05:24:14.899Z,8.84
2023-03-15T05:27:01.716Z,9.14
2023-03-15T05:29:46.060Z,9.39
2023-03-15T05:32:38.011Z,9.50
2023-03-15T05:35:19.809Z,9.52
2023-03-15T05:38:08.626Z,9.85
2023-03-15T05:40:57.728Z,10.30
2023-03-15T05:43:38.163Z,10.65
2023-03-15T05:46:26.984Z,10.90
2023-03-15T05:49:00.810Z,11.16
2023-03-15T05:51:46.331Z,11.43
2023-03-15T05:54:39.317Z,11.35
2023-03-15T05:57:34.225Z,11.42
2023-03-15T06:00:28.556Z,11.70
2023-03-15T06:02:58.360Z,11.95
2023-03-15T06:05:42.835Z,12.34
2023-03-15T06:08:14.773Z,12.51
2023-03-15T06:10:47.454Z,12.52
2023-03-15T06:13:18.245Z,12.56
2023-03-15T06:15:47.420Z,12.69
2023-03-15T06:18:17.863Z,12.91
2023-03-15T06:20:47.935Z,13.27
2023-03-15T06:23:16.559Z,13.81
2023-03-15T06:25:48.137Z,14.24
2023-03-15T06:28:16.949Z,14.65
2023-03-15T06:30:51.016Z,15.24
2023-03-15T06:33:21.671Z,15.19
2023-03-15T06:35:50.218Z,15.18
2023-03-15T06:38:18.670Z,15.13
2023-03-15T06:40:47.288Z,15.12
2023-03-15T06:43:21.384Z,15.58
2023-03-15T06:45:49.964Z,15.75
2023-03-15T06:48:19.033Z,15.64
2023-03-15T06:50:48.215Z,15.51
2023-03-15T06:53:18.032Z,15.55
2023-03-15T06:55:47.418Z,15.62
2023-03-15T06:58:16.101Z,15.40
2023-03-15T07:00:45.169Z,15.41
2023-03-15T07:03:14.615Z,15.61
2023-03-15T07:05:43.664Z,15.74
2023-03-15T07:08:12.616Z,16.00
2023-03-15T07:10:42.272Z,16.19
2023-03-15T07:13:11.223Z,16.32
2023-03-15T07:15:40.105Z,16.52
2023-03-15T07:18:08.764Z,16.83
2023-03-15T07:20:37.778Z,17.23
2023-03-15T07:23:07.040Z,17.58
2023-03-15T07:25:48.192Z,17.69
2023-03-15T07:28:21.156Z,18.00
2023-03-15T07:30:59.177Z,18.19
2023-03-15T07:33:28.640Z,18.29
2023-03-15T07:35:57.102Z,18.36
2023-03-15T07:38:26.803Z,18.20
2023-03-15T07:40:55.368Z,18.56
2023-03-15T07:43:25.089Z,18.74
2023-03-15T07:46:02.088Z,18.52
2023-03-15T07:48:31.759Z,18.61
2023-03-15T07:51:00.167Z,18.78
2023-03-15T07:53:28.634Z,19.02
2023-03-15T07:55:58.048Z,19.11
2023-03-15T07:58:26.212Z,18.92
2023-03-15T08:00:56.435Z,18.94
2023-03-15T08:03:27.103Z,19.11
2023-03-15T08:05:57.179Z,19.31
2023-03-15T08:08:26.554Z,19.22
2023-03-15T08:10:56.386Z,19.25
2023-03-15T08:13:26.596Z,19.04
2023-03-15T08:15:55.000Z,18.91
2023-03-15T08:18:29.583Z,19.03
2023-03-15T08:20:59.365Z,19.17
2023-03-15T08:23:28.252Z,19.12
2023-03-15T08:25:56.727Z,18.65
2023-03-15T08:28:26.055Z,17.72
2023-03-15T08:30:54.349Z,17.47
2023-03-15T08:33:24.287Z,17.66
2023-03-15T08:35:54.434Z,18.14
2023-03-15T08:38:23.182Z,18.76
2023-03-15T08:40:55.567Z,18.89
2023-03-15T08:43:23.890Z,18.68
2023-03-15T08:46:00.708Z,18.23
2023-03-15T08:48:31.760Z,18.14
2023-03-15T08:51:04.265Z,18.30
2023-03-15T08:53:34.161Z,18.39
2023-03-15T08:56:02.295Z,18.32
2023-03-15T08:58:30.703Z,17.86
2023-03-15T09:00:58.930Z,17.77
2023-03-15T09:03:27.955Z,18.05
2023-03-15T09:05:59.441Z,18.56
2023-03-15T09:08:27.762Z,18.91
2023-03-15T09:10:57.095Z,18.63
2023-03-15T09:13:25.876Z,18.41
2023-03-15T09:15:59.993Z,18.57
2023-03-15T09:18:28.711Z,18.88
2023-03-15T09:20:57.832Z,19.29
2023-03-15T09:23:26.840Z,19.71
2023-03-15T09:25:55.463Z,20.07
2023-03-15T09:28:25.615Z,20.23
2023-03-15T09:30:55.077Z,20.12
2023-03-15T09:33:23.356Z,19.91
2023-03-15T09:35:53.526Z,19.39
2023-03-15T09:38:24.241Z,19.00
2023-03-15T09:40:55.868Z,18.93
2023-03-15T09:43:35.984Z,18.54
2023-03-15T09:46:13.333Z,17.86
2023-03-15T09:48:50.063Z,17.62
2023-03-15T09:51:41.748Z,17.63
2023-03-15T09:54:13.930Z,17.75
2023-03-15T09:56:42.356Z,17.67
2023-03-15T09:59:10.728Z,17.46
2023-03-15T10:01:40.457Z,17.44
2023-03-15T10:04:14.710Z,17.68
2023-03-15T10:06:46.421Z,17.78
2023-03-15T10:09:16.340Z,17.58
2023-03-15T10:11:55.821Z,17.52
2023-03-15T10:14:28.998Z,17.65
2023-03-15T10:16:57.192Z,17.73
2023-03-15T10:19:32.387Z,17.88
2023-03-15T10:22:05.067Z,18.24
2023-03-15T10:24:39.607Z,18.34
2023-03-15T10:27:21.688Z,18.21
2023-03-15T10:29:50.775Z,18.04
2023-03-15T10:32:19.512Z,17.89
2023-03-15T10:34:52.431Z,17.56
2023-03-15T10:37:23.951Z,17.24
2023-03-15T10:39:54.354Z,17.23
2023-03-15T10:42:25.726Z,17.37
2023-03-15T10:44:54.202Z,17.31
2023-03-15T10:47:24.511Z,16.93
2023-03-15T10:49:57.073Z,16.40
2023-03-15T10:52:28.596Z,16.04
2023-03-15T10:55:04.375Z,15.97
2023-03-15T10:57:34.956Z,16.01
2023-03-15T11:00:10.015Z,15.89
2023-03-15T11:02:38.585Z,15.57
2023-03-15T11:05:12.487Z,15.23
2023-03-15T11:07:44.729Z,15.04
2023-03-15T11:10:18.007Z,15.08
2023-03-15T11:12:46.450Z,15.30
2023-03-15T11:15:16.876Z,15.54
2023-03-15T11:17:48.198Z,15.62
2023-03-15T11:20:19.399Z,15.63
2023-03-15T11:22:47.731Z,15.57
2023-03-15T11:25:16.356Z,15.39
2023-03-15T11:27:44.690Z,15.30
2023-03-15T11:30:16.108Z,15.32
2023-03-15T11:32:45.332Z,15.31
2023-03-15T11:35:25.235Z,15.26
2023-03-15T11:38:03.214Z,15.22
2023-03-15T11:40:35.181Z,15.28
2023-03-15T11:43:04.903Z,15.30
2023-03-15T11:45:35.078Z,15.04
2023-03-15T11:48:28.229Z,14.66
2023-03-15T11:50:56.515Z,14.50
2023-03-15T11:53:25.928Z,14.57
2023-03-15T11:55:55.156Z,14.76
2023-03-15T11:58:45.197Z,14.97
2023-03-15T12:01:13.555Z,15.07
2023-03-15T12:03:44.872Z,14.88
2023-03-15T12:06:19.131Z,14.71
2023-03-15T12:08:54.064Z,14.71
2023-03-15T12:11:22.824Z,14.72
2023-03-15T12:13:57.377Z,14.84
2023-03-15T12:16:29.748Z,15.01
2023-03-15T12:18:58.167Z,15.04
2023-03-15T12:21:32.845Z,15.03
2023-03-15T12:24:04.148Z,15.14
2023-03-15T12:26:44.437Z,15.33
2023-03-15T12:29:22.989Z,15.50
2023-03-15T12:32:04.212Z,15.53
2023-03-15T12:34:39.837Z,15.47
2023-03-15T12:37:09.270Z,15.53
2023-03-15T12:39:39.326Z,15.62
2023-03-15T12:42:11.989Z,15.65
2023-03-15T12:44:42.167Z,15.52
2023-03-15T12:47:10.863Z,15.39
2023-03-15T12:49:43.585Z,15.42
2023-03-15T12:52:11.780Z,15.44
2023-03-15T12:54:44.561Z,15.40
2023-03-15T12:57:23.024Z,15.31
2023-03-15T12:59:53.935Z,15.28
2023-03-15T13:02:42.745Z,15.24
2023-03-15T13:05:23.224Z,15.17
2023-03-15T13:07:52.247Z,15.06
2023-03-15T13:10:23.997Z,14.88
2023-03-15T13:12:54.894Z,14.75
2023-03-15T13:15:33.201Z,14.67
2023-03-15T13:18:18.407Z,14.53
2023-03-15T13:20:50.229Z,14.41
2023-03-15T13:23:28.078Z,14.36
2023-03-15T13:26:08.607Z,14.31
2023-03-15T13:28:49.604Z,14.26
2023-03-15T13:31:25.068Z,14.26
2023-03-15T13:34:00.394Z,14.32
2023-03-15T13:36:41.117Z,14.35
2023-03-15T13:39:19.735Z,14.32
2023-03-15T13:41:48.156Z,14.21
2023-03-15T13:44:19.120Z,14.06
2023-03-15T13:46:52.162Z,13.99
2023-03-15T13:49:20.744Z,13.96
2023-03-15T13:51:49.301Z,13.91
2023-03-15T13:54:27.392Z,13.79
2023-03-15T13:56:57.290Z,13.68
2023-03-15T13:59:54.820Z,13.59
2023-03-15T14:02:26.606Z,13.51
2023-03-15T14:04:57.523Z,13.46
2023-03-15T14:07:30.190Z,13.39
2023-03-15T14:10:08.945Z,13.33
2023-03-15T14:12:37.684Z,13.27
2023-03-15T14:15:13.889Z,13.22
2023-03-15T14:18:02.978Z,13.13
2023-03-15T14:20:44.732Z,13.04
2023-03-15T14:23:14.684Z,12.98
2023-03-15T14:25:44.948Z,12.92
2023-03-15T14:28:15.377Z,12.82
2023-03-15T14:30:44.005Z,12.76
2023-03-15T14:33:22.990Z,12.71
2023-03-15T14:35:53.192Z,12.66
2023-03-15T14:38:22.596Z,12.63
2023-03-15T14:40:51.896Z,12.61
2023-03-15T14:43:20.090Z,12.58
2023-03-15T14:45:48.711Z,12.52
2023-03-15T14:48:19.776Z,12.47
2023-03-15T14:50:48.104Z,12.40
2023-03-15T14:53:16.979Z,12.32
2023-03-15T14:55:48.937Z,12.21
2023-03-15T14:58:18.586Z,12.09
2023-03-15T15:00:50.047Z,12.00
2023-03-15T15:03:22.416Z,11.93
2023-03-15T15:05:50.563Z,11.86
2023-03-15T15:08:19.453Z,11.74
2023-03-15T15:10:48.068Z,11.53
2023-03-15T15:13:18.222Z,11.28
2023-03-15T15:15:54.999Z,11.08
2023-03-15T15:18:25.344Z,10.90
2023-03-15T15:20:56.343Z,10.77
2023-03-15T15:23:28.841Z,10.65
2023-03-15T15:25:58.263Z,10.49
2023-03-15T15:28:35.132Z,10.35
2023-03-15T15:31:05.936Z,10.20
2023-03-15T15:33:35.264Z,10.05
2023-03-15T15:36:07.129Z,9.89
2023-03-15T15:38:39.150Z,9.74
2023-03-15T15:41:11.988Z,9.60
2023-03-15T15:43:41.448Z,9.52
2023-03-15T15:46:10.436Z,9.46
2023-03-15T15:48:42.704Z,9.40
2023-03-15T15:51:21.472Z,9.34
2023-03-15T15:53:50.189Z,9.27
2023-03-15T15:56:18.583Z,9.20
2023-03-15T15:58:47.275Z,9.14
2023-03-15T16:01:16.394Z,9.08
2023-03-15T16:03:44.738Z,9.03
2023-03-15T16:06:15.167Z,8.98
2023-03-15T16:08:43.594Z,8.93
2023-03-15T16:11:15.686Z,8.90
2023-03-15T16:13:45.343Z,8.87
2023-03-15T16:16:14.750Z,8.83
2023-03-15T16:18:44.518Z,8.79
2023-03-15T16:21:17.583Z,8.74
2023-03-15T16:23:45.899Z,8.70
2023-03-15T16:26:14.781Z,8.66
2023-03-15T16:28:43.748Z,8.62
2023-03-15T16:31:12.631Z,8.57
2023-03-15T16:33:54.286Z,8.50
2023-03-15T16:36:23.710Z,8.44
2023-03-15T16:38:52.241Z,8.38
2023-03-15T16:41:20.566Z,8.33
2023-03-15T16:43:49.607Z,8.29
2023-03-15T16:46:17.944Z,8.28
2023-03-15T16:48:47.757Z,8.24
2023-03-15T16:51:16.323Z,8.18
2023-03-15T16:53:46.107Z,8.09
2023-03-15T16:56:14.608Z,7.99
2023-03-15T16:58:46.694Z,7.91
2023-03-15T17:01:15.225Z,7.86
2023-03-15T17:03:43.527Z,7.82
2023-03-15T17:06:23.308Z,7.79
2023-03-15T17:08:52.884Z,7.75
2023-03-15T17:11:21.025Z,7.73
2023-03-15T17:13:50.320Z,7.71
2023-03-15T17:16:19.397Z,7.71
2023-03-15T17:18:48.943Z,7.70
2023-03-15T17:21:20.112Z,7.69
2023-03-15T17:23:49.233Z,7.67
2023-03-15T17:26:22.677Z,7.60
2023-03-15T17:28:51.377Z,7.52
2023-03-15T17:31:25.014Z,7.42
2023-03-15T17:33:56.424Z,7.31
2023-03-15T17:36:25.286Z,7.22
2023-03-15T17:38:55.047Z,7.14
2023-03-15T17:41:25.157Z,7.09
2023-03-15T17:43:53.300Z,7.07
2023-03-15T17:46:23.058Z,7.07
2023-03-15T17:48:51.790Z,7.06
2023-03-15T17:51:23.576Z,7.06
2023-03-15T17:53:52.406Z,7.05
2023-03-15T17:56:22.880Z,7.05
2023-03-15T17:58:52.748Z,7.07
2023-03-15T18:01:24.553Z,7.09
2023-03-15T18:03:54.901Z,7.10
2023-03-15T18:06:24.458Z,7.10
2023-03-15T18:08:54.967Z,7.11
2023-03-15T18:11:24.119Z,7.11
2023-03-15T18:13:52.354Z,7.12
2023-03-15T18:16:25.995Z,7.13
2023-03-15T18:18:56.046Z,7.14
2023-03-15T18:21:26.395Z,7.17
2023-03-15T18:23:54.988Z,7.19
2023-03-15T18:26:24.087Z,7.17
2023-03-15T18:28:52.409Z,7.15
2023-03-15T18:31:22.856Z,7.12
2023-03-15T18:33:51.387Z,7.13
2023-03-15T18:36:19.894Z,7.15
2023-03-15T18:38:48.620Z,7.16
2023-03-15T18:41:19.069Z,7.16
2023-03-15T18:43:52.305Z,7.16
2023-03-15T18:46:21.376Z,7.17
2023-03-15T18:48:54.620Z,7.16
2023-03-15T18:51:25.948Z,7.14
2023-03-15T18:53:54.449Z,7.14
2023-03-15T18:56:24.037Z,7.15
2023-03-15T18:58:52.428Z,7.17
2023-03-15T19:01:24.842Z,7.19
2023-03-15T19:03:53.636Z,7.21
2023-03-15T19:06:21.794Z,7.21
2023-03-15T19:08:54.464Z,7.21
2023-03-15T19:11:24.173Z,7.21
2023-03-15T19:13:55.459Z,7.19
2023-03-15T19:16:24.251Z,7.18
2023-03-15T19:18:52.600Z,7.18
2023-03-15T19:21:27.776Z,7.17
2023-03-15T19:23:58.074Z,7.17
2023-03-15T19:26:26.537Z,7.16
2023-03-15T19:28:58.793Z,7.17
2023-03-15T19:31:27.191Z,7.17
2023-03-15T19:33:59.148Z,7.17
2023-03-15T19:36:27.718Z,7.18
2023-03-15T19:38:55.896Z,7.18
2023-03-15T19:41:27.150Z,7.17
2023-03-15T19:43:56.032Z,7.17
2023-03-15T19:46:29.996Z,7.16
2023-03-15T19:48:59.258Z,7.17
2023-03-15T19:51:28.193Z,7.18
2023-03-15T19:53:57.031Z,7.17
2023-03-15T19:56:25.677Z,7.19
2023-03-15T19:58:57.272Z,7.22
2023-03-15T20:01:25.536Z,7.23
2023-03-15T20:03:53.823Z,7.23
2023-03-15T20:06:22.247Z,7.23
2023-03-15T20:08:50.500Z,7.22
2023-03-15T20:11:25.336Z,7.21
2023-03-15T20:13:53.746Z,7.20
2023-03-15T20:16:22.134Z,7.20
2023-03-15T20:18:55.985Z,7.20
2023-03-15T20:21:24.313Z,7.20
2023-03-15T20:23:52.528Z,7.20
2023-03-15T20:26:22.770Z,7.19
2023-03-15T20:28:52.404Z,7.17
2023-03-15T20:31:23.547Z,7.17
2023-03-15T20:33:53.308Z,7.17
2023-03-15T20:36:22.208Z,7.15
2023-03-15T20:38:50.724Z,7.14
2023-03-15T20:41:18.977Z,7.13
2023-03-15T20:43:48.642Z,7.13
2023-03-15T20:46:19.423Z,7.15
2023-03-15T20:48:47.653Z,7.18
2023-03-15T20:51:16.258Z,7.22
2023-03-15T20:53:44.580Z,7.26
2023-03-15T20:56:16.591Z,7.29
2023-03-15T20:58:45.265Z,7.34
2023-03-15T21:01:15.200Z,7.41
2023-03-15T21:03:44.412Z,7.48
2023-03-15T21:06:12.966Z,7.54
2023-03-15T21:08:42.551Z,7.59
2023-03-15T21:11:10.830Z,7.61
2023-03-15T21:13:39.104Z,7.62
2023-03-15T21:16:07.767Z,7.62
2023-03-15T21:18:37.754Z,7.62
2023-03-15T21:21:07.549Z,7.61
2023-03-15T21:23:37.528Z,7.60
2023-03-15T21:26:06.796Z,7.57
2023-03-15T21:28:41.731Z,7.53
2023-03-15T21:31:10.771Z,7.52
2023-03-15T21:33:39.379Z,7.50
2023-03-15T21:36:07.953Z,7.46
2023-03-15T21:38:37.465Z,7.41
2023-03-15T21:41:09.222Z,7.37
2023-03-15T21:43:38.215Z,7.35
2023-03-15T21:46:10.301Z,7.33
2023-03-15T21:48:38.642Z,7.33
2023-03-15T21:51:07.462Z,7.33
2023-03-15T21:53:35.780Z,7.35
2023-03-15T21:56:04.141Z,7.37
2023-03-15T21:58:32.569Z,7.39
2023-03-15T22:01:04.805Z,7.42
2023-03-15T22:03:33.555Z,7.43
2023-03-15T22:06:01.940Z,7.43
2023-03-15T22:08:33.946Z,7.43
2023-03-15T22:11:02.297Z,7.42
2023-03-15T22:13:30.758Z,7.43
2023-03-15T22:15:59.228Z,7.44
2023-03-15T22:18:28.911Z,7.45
2023-03-15T22:20:57.130Z,7.46
2023-03-15T22:23:25.429Z,7.45
2023-03-15T22:25:55.731Z,7.43
2023-03-15T22:28:27.841Z,7.41
2023-03-15T22:30:56.361Z,7.40
2023-03-15T22:33:24.649Z,7.37
2023-03-15T22:35:54.080Z,7.34
2023-03-15T22:38:24.053Z,7.32
2023-03-15T22:40:59.382Z,7.29
2023-03-15T22:43:27.566Z,7.26
2023-03-15T22:45:59.429Z,7.23
2023-03-15T22:48:27.671Z,7.22
2023-03-15T22:51:00.805Z,7.22
2023-03-15T22:53:30.713Z,7.24
2023-03-15T22:55:58.992Z,7.26
2023-03-15T22:58:27.343Z,7.27
2023-03-15T23:00:55.660Z,7.30
2023-03-15T23:03:24.055Z,7.34
2023-03-15T23:05:52.915Z,7.36
2023-03-15T23:08:21.435Z,7.38
2023-03-15T23:10:49.554Z,7.37
2023-03-15T23:13:17.776Z,7.34
2023-03-15T23:15:50.505Z,7.30
2023-03-15T23:18:18.869Z,7.25
2023-03-15T23:20:47.198Z,7.20
2023-03-15T23:23:17.272Z,7.14
2023-03-15T23:25:47.089Z,7.08
2023-03-15T23:28:17.470Z,7.02
2023-03-15T23:30:47.274Z,6.95
2023-03-15T23:33:15.637Z,6.89
2023-03-15T23:35:43.853Z,6.84
2023-03-15T23:38:13.891Z,6.80
2023-03-15T23:40:42.237Z,6.77
2023-03-15T23:43:10.489Z,6.75
2023-03-15T23:45:38.781Z,6.73
2023-03-15T23:48:07.153Z,6.73
2023-03-15T23:50:38.376Z,6.72
2023-03-15T23:53:06.895Z,6.71
2023-03-15T23:55:35.988Z,6.70
2023-03-15T23:58:06.904Z,6.68
